UTDK

Details ICAO UTDK (TJU)
Name Kulob
Region Tajikistan, Turkmenistan and Uzbekistan
Timezone Asia/Dushanbe (UTC+5.0)
Plans Departing 25
Arriving 55
Stats Elevation 2,293 ft / 699 m (AMSL)
Location 37.988300° 69.806700°
Runways 1
Magnetic Variation 4.516° E
Sunrise 2024-03-04 01:49:41 UTC / 2024-03-04 06:49:41 Local
Sunset 2024-03-04 13:18:12 UTC / 2024-03-04 18:18:12 Local
Advertisement - Login to hide

Runways

ID Width Length Bearing (true/mag) Surface Threshold Overrun Markings Lighting
01 148 ft / 45 m 10,058 ft / 3,066 m 15.90° / 11.38° ASPHALT 0 ft / 0 m 0 ft / 0 m PREC-APP EDGE THRESHOLD ALSF-I
19 148 ft / 45 m 10,058 ft / 3,066 m 195.90° / 191.39° ASPHALT 0 ft / 0 m 0 ft / 0 m VISUAL EDGE THRESHOLD

Approach Navaids

Runway Type Ident Frequency Range Bearing (true/mag) Slope Elevation
01 LOC-ILS ICG 108.10 MHz 18 nm / 33 km 15.90° / 11.38° - 2,293 ft / 699 m (AMSL)
01 GS ICG 108.10 MHz 10 nm / 19 km 15.90° / 11.38° 3.00° 2,293 ft / 699 m (AMSL)

Map

Weather


0- 5 10 15 20 25 30 35+ Temperature / °C

Clouds and Precipitation
Forecast for 2024-03-04 06:00 UTC. Updated 5 hours ago

Ground ~20,000 ft ~40,000 ft Winds

METAR

UTDK 040800Z VRB01MPS 9999 NSC 04/M08 Q1025 R01/09//70 RMK QFE711/0948

TAF

Not found

Frequencies

Tower 118.50 MHz Kulob Tower
Warning: Do not use this data for real-world aviation or navigation. No guarantee of current accuracy is given.